CheckWX is a tool to help pilots better visualize weather data.  It is not intended as a substitute for an official pre-flight weather briefing.

19:20:34 UTC

KBDN METAR
Bend Municipal Airport
Bend, Oregon, USA
Current

6 mins ago

KBDN 191915Z AUTO 31011G21KT 270V350 10SM CLR 20/M04 A3015 RMK AO2
Observed
Jun-19 @ 19:15 UTC
Wind
  • 310° at 11 KTS
  • Gusting to 21 KTS
Visibility
10 SM
Flight Rules
VFR
Cloud Levels
  • Clear skies
Temperature
20°C / 68°F
Dewpoint
-4°C / 25°F
Humidity
20%
Altimeter
30.15" Hg
Pressure
1021.02 hPa
Previous

26 mins ago

KBDN 191855Z AUTO 31012G21KT 10SM CLR 19/M04 A3015 RMK AO2
Observed
Jun-19 @ 18:55 UTC
Wind
  • 310° at 12 KTS
  • Gusting to 21 KTS
Visibility
10 SM
Flight Rules
VFR
Cloud Levels
  • Clear skies
Temperature
19°C / 66°F
Dewpoint
-4°C / 25°F
Humidity
21%
Altimeter
30.15" Hg
Pressure
1021.02 hPa
Previous

46 mins ago

KBDN 191835Z AUTO 29014KT 10SM CLR 20/M04 A3016 RMK AO2
Observed
Jun-19 @ 18:35 UTC
Wind
  • 290° at 14 KTS
Visibility
10 SM
Flight Rules
VFR
Cloud Levels
  • Clear skies
Temperature
20°C / 68°F
Dewpoint
-4°C / 25°F
Humidity
20%
Altimeter
30.16" Hg
Pressure
1021.32 hPa